Terminal Aerodrome Forecast
Issued by NWS Corpus Christi, TX

Home | Current Version | Previous Version | Text Only | Print | Product List | Glossary On
Versions: 1 2 3 4 5 6 7 8 9 10 11 12 13 14 15 16 17
000
FTUS44 KCRP 201100
TAFVCT
TAF
KVCT 201129Z 2012/2112 36008KT P6SM OVC008
     FM201600 03008KT P6SM OVC015
     FM202100 04007KT P6SM OVC025
     FM210700 01003KT 6SM BR OVC015=

USA.gov is the U.S. government's official web portal to all federal, state and local government web resources and services.